sensor_id;sensor_type;location;lat;lon;timestamp;pressure;altitude;pressure_sealevel;temperature;humidity
86602;BME280;77266;52.284;20.890;2024-03-22T00:02:04;100482.11;;;19.42;41.05
86602;BME280;77266;52.284;20.890;2024-03-22T00:04:38;100478.23;;;19.39;40.93
86602;BME280;77266;52.284;20.890;2024-03-22T00:07:15;100474.42;;;19.39;40.92
86602;BME280;77266;52.284;20.890;2024-03-22T00:09:50;100475.98;;;19.38;40.95
86602;BME280;77266;52.284;20.890;2024-03-22T00:12:30;100472.14;;;19.35;41.06
86602;BME280;77266;52.284;20.890;2024-03-22T00:15:15;100470.35;;;19.33;40.86
86602;BME280;77266;52.284;20.890;2024-03-22T00:17:47;100473.31;;;19.32;40.96
86602;BME280;77266;52.284;20.890;2024-03-22T00:20:18;100471.66;;;19.30;41.14
86602;BME280;77266;52.284;20.890;2024-03-22T00:22:53;100471.66;;;19.28;41.12
86602;BME280;77266;52.284;20.890;2024-03-22T00:25:26;100469.71;;;19.25;41.35
86602;BME280;77266;52.284;20.890;2024-03-22T00:28:02;100467.71;;;19.25;41.31
86602;BME280;77266;52.284;20.890;2024-03-22T00:30:46;100464.17;;;19.23;41.33
86602;BME280;77266;52.284;20.890;2024-03-22T00:33:24;100468.33;;;19.23;41.31
86602;BME280;77266;52.284;20.890;2024-03-22T00:36:11;100468.10;;;19.20;41.23
86602;BME280;77266;52.284;20.890;2024-03-22T00:38:44;100462.82;;;19.18;41.20
86602;BME280;77266;52.284;20.890;2024-03-22T00:41:18;100462.61;;;19.18;41.36
86602;BME280;77266;52.284;20.890;2024-03-22T00:43:49;100461.08;;;19.17;41.47
86602;BME280;77266;52.284;20.890;2024-03-22T00:46:22;100457.33;;;19.16;41.41
86602;BME280;77266;52.284;20.890;2024-03-22T00:48:59;100457.39;;;19.14;41.40
86602;BME280;77266;52.284;20.890;2024-03-22T00:51:33;100454.45;;;19.13;41.43
86602;BME280;77266;52.284;20.890;2024-03-22T00:54:05;100445.27;;;19.11;41.52
86602;BME280;77266;52.284;20.890;2024-03-22T00:56:40;100443.98;;;19.11;41.45
86602;BME280;77266;52.284;20.890;2024-03-22T00:59:14;100444.55;;;19.11;41.42
86602;BME280;77266;52.284;20.890;2024-03-22T01:01:49;100447.54;;;19.09;41.62
86602;BME280;77266;52.284;20.890;2024-03-22T01:04:22;100452.79;;;19.09;41.49
86602;BME280;77266;52.284;20.890;2024-03-22T01:06:56;100458.90;;;19.07;41.56
86602;BME280;77266;52.284;20.890;2024-03-22T01:09:33;100458.98;;;19.06;41.57
86602;BME280;77266;52.284;20.890;2024-03-22T01:12:06;100463.23;;;19.04;41.71
86602;BME280;77266;52.284;20.890;2024-03-22T01:14:38;100458.31;;;19.05;41.51
86602;BME280;77266;52.284;20.890;2024-03-22T01:17:13;100454.86;;;19.03;41.51
86602;BME280;77266;52.284;20.890;2024-03-22T01:19:58;100453.42;;;19.01;41.65
86602;BME280;77266;52.284;20.890;2024-03-22T01:22:31;100451.05;;;19.01;41.60
86602;BME280;77266;52.284;20.890;2024-03-22T01:25:08;100450.70;;;19.01;41.52
86602;BME280;77266;52.284;20.890;2024-03-22T01:27:41;100447.20;;;19.00;41.63
86602;BME280;77266;52.284;20.890;2024-03-22T01:30:16;100450.95;;;19.02;41.51
86602;BME280;77266;52.284;20.890;2024-03-22T01:32:50;100444.58;;;19.01;41.48
86602;BME280;77266;52.284;20.890;2024-03-22T01:35:22;100446.42;;;19.00;41.72
86602;BME280;77266;52.284;20.890;2024-03-22T01:37:55;100451.67;;;18.98;41.55
86602;BME280;77266;52.284;20.890;2024-03-22T01:40:33;100456.50;;;18.98;41.67
86602;BME280;77266;52.284;20.890;2024-03-22T01:43:08;100455.02;;;18.97;41.72
86602;BME280;77266;52.284;20.890;2024-03-22T01:45:42;100456.11;;;18.97;41.64
86602;BME280;77266;52.284;20.890;2024-03-22T01:48:13;100450.15;;;18.96;41.75
86602;BME280;77266;52.284;20.890;2024-03-22T01:50:46;100452.95;;;18.96;41.70
86602;BME280;77266;52.284;20.890;2024-03-22T01:53:19;100451.33;;;18.97;41.71
86602;BME280;77266;52.284;20.890;2024-03-22T01:55:58;100449.35;;;18.95;41.60
86602;BME280;77266;52.284;20.890;2024-03-22T01:58:36;100448.02;;;18.94;41.60
86602;BME280;77266;52.284;20.890;2024-03-22T02:01:12;100450.38;;;18.93;41.77
86602;BME280;77266;52.284;20.890;2024-03-22T02:03:43;100442.23;;;18.92;41.72
86602;BME280;77266;52.284;20.890;2024-03-22T02:06:15;100441.80;;;18.92;41.64
86602;BME280;77266;52.284;20.890;2024-03-22T02:08:52;100442.88;;;18.91;41.72
86602;BME280;77266;52.284;20.890;2024-03-22T02:11:24;100437.66;;;18.92;41.90
86602;BME280;77266;52.284;20.890;2024-03-22T02:14:02;100433.75;;;18.90;41.89
86602;BME280;77266;52.284;20.890;2024-03-22T02:16:39;100432.98;;;18.89;41.85
86602;BME280;77266;52.284;20.890;2024-03-22T02:19:23;100431.79;;;18.90;41.80
86602;BME280;77266;52.284;20.890;2024-03-22T02:21:57;100434.60;;;18.92;41.79
86602;BME280;77266;52.284;20.890;2024-03-22T02:24:35;100429.27;;;18.91;41.70
86602;BME280;77266;52.284;20.890;2024-03-22T02:27:17;100432.89;;;18.90;41.81
86602;BME280;77266;52.284;20.890;2024-03-22T02:29:50;100430.09;;;18.87;41.79
86602;BME280;77266;52.284;20.890;2024-03-22T02:32:23;100430.45;;;18.88;41.84
86602;BME280;77266;52.284;20.890;2024-03-22T02:34:55;100429.13;;;18.87;41.97
86602;BME280;77266;52.284;20.890;2024-03-22T02:37:28;100435.02;;;18.89;41.88
86602;BME280;77266;52.284;20.890;2024-03-22T02:40:17;100436.23;;;18.88;41.98
86602;BME280;77266;52.284;20.890;2024-03-22T02:42:55;100431.42;;;18.86;42.08
86602;BME280;77266;52.284;20.890;2024-03-22T02:45:28;100427.54;;;18.87;41.98
86602;BME280;77266;52.284;20.890;2024-03-22T02:48:03;100428.70;;;18.85;42.13
86602;BME280;77266;52.284;20.890;2024-03-22T02:50:39;100431.08;;;18.87;41.90
86602;BME280;77266;52.284;20.890;2024-03-22T02:53:14;100430.74;;;18.86;41.88
86602;BME280;77266;52.284;20.890;2024-03-22T02:56:06;100430.05;;;18.85;41.90
86602;BME280;77266;52.284;20.890;2024-03-22T02:58:40;100429.90;;;18.83;41.91
86602;BME280;77266;52.284;20.890;2024-03-22T03:01:14;100431.98;;;18.88;41.98
86602;BME280;77266;52.284;20.890;2024-03-22T03:03:46;100428.64;;;18.87;42.13
86602;BME280;77266;52.284;20.890;2024-03-22T03:06:26;100429.20;;;18.86;42.20
86602;BME280;77266;52.284;20.890;2024-03-22T03:09:01;100431.59;;;18.84;42.22
86602;BME280;77266;52.284;20.890;2024-03-22T03:11:35;100428.65;;;18.84;42.29
86602;BME280;77266;52.284;20.890;2024-03-22T03:14:08;100429.77;;;18.84;42.41
86602;BME280;77266;52.284;20.890;2024-03-22T03:16:41;100431.89;;;18.85;42.36
86602;BME280;77266;52.284;20.890;2024-03-22T03:19:12;100439.70;;;18.83;42.49
86602;BME280;77266;52.284;20.890;2024-03-22T03:21:44;100437.95;;;18.82;42.51
86602;BME280;77266;52.284;20.890;2024-03-22T03:24:24;100442.02;;;18.83;42.49
86602;BME280;77266;52.284;20.890;2024-03-22T03:27:02;100441.42;;;18.80;42.36
86602;BME280;77266;52.284;20.890;2024-03-22T03:29:38;100450.13;;;18.80;42.50
86602;BME280;77266;52.284;20.890;2024-03-22T03:32:14;100451.91;;;18.81;42.43
86602;BME280;77266;52.284;20.890;2024-03-22T03:34:44;100456.64;;;18.82;42.55
86602;BME280;77266;52.284;20.890;2024-03-22T03:37:22;100459.16;;;18.82;42.47
86602;BME280;77266;52.284;20.890;2024-03-22T03:39:52;100457.24;;;18.81;42.51
86602;BME280;77266;52.284;20.890;2024-03-22T03:42:27;100458.27;;;18.78;42.63
86602;BME280;77266;52.284;20.890;2024-03-22T03:45:01;100453.80;;;18.77;42.75
86602;BME280;77266;52.284;20.890;2024-03-22T03:47:31;100462.33;;;18.76;42.79
86602;BME280;77266;52.284;20.890;2024-03-22T03:50:05;100460.77;;;18.78;42.74
86602;BME280;77266;52.284;20.890;2024-03-22T03:52:36;100463.77;;;18.79;42.67
86602;BME280;77266;52.284;20.890;2024-03-22T03:55:19;100470.69;;;18.76;42.62
86602;BME280;77266;52.284;20.890;2024-03-22T03:57:58;100470.13;;;18.76;42.71
86602;BME280;77266;52.284;20.890;2024-03-22T04:00:40;100471.49;;;18.75;42.63
86602;BME280;77266;52.284;20.890;2024-03-22T04:03:13;100472.78;;;18.74;42.73
86602;BME280;77266;52.284;20.890;2024-03-22T04:05:47;100473.52;;;18.73;42.71
86602;BME280;77266;52.284;20.890;2024-03-22T04:08:33;100478.38;;;18.73;42.84
86602;BME280;77266;52.284;20.890;2024-03-22T04:11:05;100479.79;;;18.74;42.69
86602;BME280;77266;52.284;20.890;2024-03-22T04:13:38;100484.90;;;18.73;42.70
86602;BME280;77266;52.284;20.890;2024-03-22T04:16:10;100481.54;;;18.69;43.15
86602;BME280;77266;52.284;20.890;2024-03-22T04:18:44;100482.14;;;18.70;43.12
86602;BME280;77266;52.284;20.890;2024-03-22T04:21:17;100481.20;;;18.70;43.09
86602;BME280;77266;52.284;20.890;2024-03-22T04:23:52;100481.46;;;18.72;42.95
86602;BME280;77266;52.284;20.890;2024-03-22T04:26:25;100480.38;;;18.72;42.92
86602;BME280;77266;52.284;20.890;2024-03-22T04:28:57;100482.76;;;18.70;43.17
86602;BME280;77266;52.284;20.890;2024-03-22T04:31:31;100484.48;;;18.71;43.09
86602;BME280;77266;52.284;20.890;2024-03-22T04:34:04;100486.74;;;18.68;43.10
86602;BME280;77266;52.284;20.890;2024-03-22T04:36:38;100484.66;;;18.68;43.12
86602;BME280;77266;52.284;20.890;2024-03-22T04:39:12;100484.52;;;18.69;43.22
86602;BME280;77266;52.284;20.890;2024-03-22T04:41:43;100482.25;;;18.68;43.05
86602;BME280;77266;52.284;20.890;2024-03-22T04:44:13;100479.92;;;18.67;43.13
86602;BME280;77266;52.284;20.890;2024-03-22T04:46:47;100477.70;;;18.66;43.00
86602;BME280;77266;52.284;20.890;2024-03-22T04:49:23;100483.25;;;18.66;43.17
86602;BME280;77266;52.284;20.890;2024-03-22T04:52:01;100485.81;;;18.65;43.36
86602;BME280;77266;52.284;20.890;2024-03-22T04:54:34;100483.24;;;18.65;43.16
86602;BME280;77266;52.284;20.890;2024-03-22T04:57:09;100487.12;;;18.72;42.99
86602;BME280;77266;52.284;20.890;2024-03-22T04:59:48;100486.08;;;18.75;42.81
86602;BME280;77266;52.284;20.890;2024-03-22T05:02:23;100493.37;;;18.80;42.75
86602;BME280;77266;52.284;20.890;2024-03-22T05:04:57;100494.36;;;18.89;42.61
86602;BME280;77266;52.284;20.890;2024-03-22T05:07:34;100492.84;;;18.97;42.45
86602;BME280;77266;52.284;20.890;2024-03-22T05:10:17;100492.83;;;19.05;42.17
86602;BME280;77266;52.284;20.890;2024-03-22T05:12:54;100494.52;;;19.14;42.07
86602;BME280;77266;52.284;20.890;2024-03-22T05:15:31;100491.45;;;19.20;42.07
86602;BME280;77266;52.284;20.890;2024-03-22T05:18:16;100488.66;;;19.28;41.80
86602;BME280;77266;52.284;20.890;2024-03-22T05:20:49;100485.55;;;19.36;41.74
86602;BME280;77266;52.284;20.890;2024-03-22T05:23:24;100490.86;;;19.43;41.55
86602;BME280;77266;52.284;20.890;2024-03-22T05:25:58;100488.17;;;19.49;41.58
86602;BME280;77266;52.284;20.890;2024-03-22T05:28:40;100488.14;;;19.56;41.34
86602;BME280;77266;52.284;20.890;2024-03-22T05:31:15;100491.91;;;19.62;41.23
86602;BME280;77266;52.284;20.890;2024-03-22T05:34:01;100493.34;;;19.67;41.18
86602;BME280;77266;52.284;20.890;2024-03-22T05:36:35;100495.14;;;19.71;41.19
86602;BME280;77266;52.284;20.890;2024-03-22T05:39:07;100490.33;;;19.76;41.31
86602;BME280;77266;52.284;20.890;2024-03-22T05:41:45;100492.85;;;19.81;40.99
86602;BME280;77266;52.284;20.890;2024-03-22T05:44:19;100487.58;;;19.84;41.03
86602;BME280;77266;52.284;20.890;2024-03-22T05:46:54;100494.04;;;19.90;40.86
86602;BME280;77266;52.284;20.890;2024-03-22T05:49:32;100496.33;;;19.92;40.77
86602;BME280;77266;52.284;20.890;2024-03-22T05:52:11;100494.27;;;19.95;40.73
86602;BME280;77266;52.284;20.890;2024-03-22T05:54:49;100494.11;;;19.99;40.81
86602;BME280;77266;52.284;20.890;2024-03-22T05:57:27;100491.59;;;20.03;40.58
86602;BME280;77266;52.284;20.890;2024-03-22T06:00:02;100486.02;;;20.06;40.66
86602;BME280;77266;52.284;20.890;2024-03-22T06:02:37;100482.70;;;20.10;40.49
86602;BME280;77266;52.284;20.890;2024-03-22T06:05:14;100482.08;;;20.13;40.55
86602;BME280;77266;52.284;20.890;2024-03-22T06:07:53;100486.14;;;20.15;40.54
86602;BME280;77266;52.284;20.890;2024-03-22T06:10:28;100487.81;;;20.19;40.43
86602;BME280;77266;52.284;20.890;2024-03-22T06:13:04;100490.86;;;20.21;40.42
86602;BME280;77266;52.284;20.890;2024-03-22T06:15:44;100495.23;;;20.24;40.25
86602;BME280;77266;52.284;20.890;2024-03-22T06:18:31;100497.52;;;20.27;40.38
86602;BME280;77266;52.284;20.890;2024-03-22T06:21:04;100500.45;;;20.31;40.23
86602;BME280;77266;52.284;20.890;2024-03-22T06:23:45;100501.66;;;20.33;40.15
86602;BME280;77266;52.284;20.890;2024-03-22T06:26:19;100495.08;;;20.34;40.21
86602;BME280;77266;52.284;20.890;2024-03-22T06:28:55;100497.47;;;20.35;40.24
86602;BME280;77266;52.284;20.890;2024-03-22T06:31:34;100498.38;;;20.38;40.23
86602;BME280;77266;52.284;20.890;2024-03-22T06:34:05;100493.80;;;20.40;40.18
86602;BME280;77266;52.284;20.890;2024-03-22T06:36:40;100488.91;;;20.40;40.20
86602;BME280;77266;52.284;20.890;2024-03-22T06:39:13;100488.96;;;20.43;40.29
86602;BME280;77266;52.284;20.890;2024-03-22T06:41:49;100489.23;;;20.45;40.28
86602;BME280;77266;52.284;20.890;2024-03-22T06:44:23;100488.41;;;20.48;40.21
86602;BME280;77266;52.284;20.890;2024-03-22T06:46:59;100487.80;;;20.51;40.31
86602;BME280;77266;52.284;20.890;2024-03-22T06:49:31;100485.77;;;20.52;40.18
86602;BME280;77266;52.284;20.890;2024-03-22T06:52:04;100483.56;;;20.54;40.19
86602;BME280;77266;52.284;20.890;2024-03-22T06:54:45;100484.12;;;20.54;40.17
86602;BME280;77266;52.284;20.890;2024-03-22T06:57:21;100487.65;;;20.53;40.18
86602;BME280;77266;52.284;20.890;2024-03-22T06:59:56;100484.30;;;20.49;40.34
86602;BME280;77266;52.284;20.890;2024-03-22T07:02:36;100485.70;;;20.45;40.36
86602;BME280;77266;52.284;20.890;2024-03-22T07:05:25;100486.54;;;20.43;40.36
86602;BME280;77266;52.284;20.890;2024-03-22T07:08:21;100493.80;;;20.39;40.28
86602;BME280;77266;52.284;20.890;2024-03-22T07:10:54;100496.39;;;20.36;40.48
86602;BME280;77266;52.284;20.890;2024-03-22T07:13:33;100491.42;;;20.32;40.53
86602;BME280;77266;52.284;20.890;2024-03-22T07:16:23;100493.80;;;20.29;40.65
86602;BME280;77266;52.284;20.890;2024-03-22T07:18:59;100495.48;;;20.26;40.44
86602;BME280;77266;52.284;20.890;2024-03-22T07:21:31;100496.23;;;20.25;40.56
86602;BME280;77266;52.284;20.890;2024-03-22T07:24:08;100495.94;;;20.22;40.51
86602;BME280;77266;52.284;20.890;2024-03-22T07:26:40;100496.95;;;20.20;40.77
86602;BME280;77266;52.284;20.890;2024-03-22T07:29:13;100495.58;;;20.19;40.77
86602;BME280;77266;52.284;20.890;2024-03-22T07:31:44;100490.33;;;20.18;40.72
86602;BME280;77266;52.284;20.890;2024-03-22T07:34:21;100486.69;;;20.16;40.77
86602;BME280;77266;52.284;20.890;2024-03-22T07:36:57;100486.17;;;20.14;40.93
86602;BME280;77266;52.284;20.890;2024-03-22T07:39:35;100485.27;;;20.10;40.85
86602;BME280;77266;52.284;20.890;2024-03-22T07:42:06;100484.50;;;20.10;40.73
86602;BME280;77266;52.284;20.890;2024-03-22T07:44:41;100484.26;;;20.08;40.84
86602;BME280;77266;52.284;20.890;2024-03-22T07:47:15;100485.51;;;20.05;40.72
86602;BME280;77266;52.284;20.890;2024-03-22T07:49:53;100478.90;;;20.00;40.74
86602;BME280;77266;52.284;20.890;2024-03-22T07:52:33;100476.48;;;20.01;40.62
86602;BME280;77266;52.284;20.890;2024-03-22T07:55:17;100476.91;;;20.01;40.69
86602;BME280;77266;52.284;20.890;2024-03-22T07:57:49;100475.92;;;19.98;40.99
86602;BME280;77266;52.284;20.890;2024-03-22T08:00:30;100475.86;;;19.99;41.19
86602;BME280;77266;52.284;20.890;2024-03-22T08:03:08;100475.16;;;19.97;41.35
86602;BME280;77266;52.284;20.890;2024-03-22T08:05:41;100478.60;;;19.93;41.24
86602;BME280;77266;52.284;20.890;2024-03-22T08:08:19;100476.42;;;19.92;41.40
86602;BME280;77266;52.284;20.890;2024-03-22T08:10:54;100478.14;;;19.89;41.21
86602;BME280;77266;52.284;20.890;2024-03-22T08:13:29;100476.83;;;19.87;41.30
86602;BME280;77266;52.284;20.890;2024-03-22T08:16:08;100473.82;;;19.85;41.20
86602;BME280;77266;52.284;20.890;2024-03-22T08:18:46;100470.59;;;19.88;41.44
86602;BME280;77266;52.284;20.890;2024-03-22T08:21:21;100471.27;;;19.90;41.26
86602;BME280;77266;52.284;20.890;2024-03-22T08:23:52;100472.21;;;19.89;41.27
86602;BME280;77266;52.284;20.890;2024-03-22T08:26:30;100464.58;;;19.87;41.21
86602;BME280;77266;52.284;20.890;2024-03-22T08:29:07;100465.92;;;19.85;41.25
86602;BME280;77266;52.284;20.890;2024-03-22T08:31:44;100470.92;;;19.83;41.21
86602;BME280;77266;52.284;20.890;2024-03-22T08:34:17;100470.11;;;19.80;41.10
86602;BME280;77266;52.284;20.890;2024-03-22T08:37:02;100470.98;;;19.82;40.96
86602;BME280;77266;52.284;20.890;2024-03-22T08:39:38;100463.64;;;19.87;41.16
86602;BME280;77266;52.284;20.890;2024-03-22T08:42:11;100455.97;;;19.95;40.93
86602;BME280;77266;52.284;20.890;2024-03-22T15:43:41;100050.91;;;20.40;41.08
86602;BME280;77266;52.284;20.890;2024-03-22T15:46:13;100048.50;;;20.34;40.94
86602;BME280;77266;52.284;20.890;2024-03-22T15:48:45;100041.60;;;20.28;41.00
86602;BME280;77266;52.284;20.890;2024-03-22T15:51:17;100038.08;;;20.31;41.12
86602;BME280;77266;52.284;20.890;2024-03-22T15:53:50;100030.35;;;20.33;40.90
86602;BME280;77266;52.284;20.890;2024-03-22T15:56:20;100027.40;;;20.37;40.90
86602;BME280;77266;52.284;20.890;2024-03-22T15:58:54;100023.94;;;20.36;41.02
86602;BME280;77266;52.284;20.890;2024-03-22T16:01:26;100024.48;;;20.32;41.00
86602;BME280;77266;52.284;20.890;2024-03-22T16:03:59;100020.08;;;20.29;40.61
86602;BME280;77266;52.284;20.890;2024-03-22T16:06:31;100024.15;;;20.34;40.76
86602;BME280;77266;52.284;20.890;2024-03-22T16:09:03;100020.21;;;20.33;40.50
86602;BME280;77266;52.284;20.890;2024-03-22T16:11:38;100015.85;;;20.33;40.61
86602;BME280;77266;52.284;20.890;2024-03-22T16:14:11;100013.77;;;20.30;40.53
86602;BME280;77266;52.284;20.890;2024-03-22T16:16:43;100003.02;;;20.32;40.66
86602;BME280;77266;52.284;20.890;2024-03-22T16:19:14;99990.11;;;20.31;40.52
86602;BME280;77266;52.284;20.890;2024-03-22T16:21:46;99988.30;;;20.36;40.72
86602;BME280;77266;52.284;20.890;2024-03-22T16:24:17;99990.07;;;20.34;40.35
86602;BME280;77266;52.284;20.890;2024-03-22T16:26:49;99994.19;;;20.30;40.41
86602;BME280;77266;52.284;20.890;2024-03-22T16:29:22;99990.26;;;20.28;40.54
86602;BME280;77266;52.284;20.890;2024-03-22T16:31:55;99988.87;;;20.26;40.57
86602;BME280;77266;52.284;20.890;2024-03-22T16:34:28;99997.48;;;20.24;40.59
86602;BME280;77266;52.284;20.890;2024-03-22T16:36:58;99997.42;;;20.23;40.56
86602;BME280;77266;52.284;20.890;2024-03-22T16:39:28;99997.76;;;20.21;40.66
86602;BME280;77266;52.284;20.890;2024-03-22T16:41:59;99998.05;;;20.35;42.59
86602;BME280;77266;52.284;20.890;2024-03-22T16:44:32;99992.27;;;20.33;42.24
86602;BME280;77266;52.284;20.890;2024-03-22T16:47:08;99995.92;;;20.23;41.07
86602;BME280;77266;52.284;20.890;2024-03-22T16:49:41;99995.71;;;20.20;41.17
86602;BME280;77266;52.284;20.890;2024-03-22T16:52:12;99999.98;;;20.17;41.19
86602;BME280;77266;52.284;20.890;2024-03-22T16:54:45;100000.36;;;20.15;41.02
86602;BME280;77266;52.284;20.890;2024-03-22T16:57:18;99989.98;;;20.13;41.09
86602;BME280;77266;52.284;20.890;2024-03-22T16:59:51;99986.86;;;20.10;40.98
86602;BME280;77266;52.284;20.890;2024-03-22T17:02:25;99985.06;;;20.01;41.21
86602;BME280;77266;52.284;20.890;2024-03-22T17:04:57;99978.03;;;19.92;41.42
86602;BME280;77266;52.284;20.890;2024-03-22T17:07:30;99974.71;;;19.84;41.48
86602;BME280;77266;52.284;20.890;2024-03-22T17:10:04;99976.58;;;19.82;41.69
86602;BME280;77266;52.284;20.890;2024-03-22T17:12:36;99975.60;;;19.74;41.92
86602;BME280;77266;52.284;20.890;2024-03-22T17:15:12;99971.20;;;19.74;42.00
86602;BME280;77266;52.284;20.890;2024-03-22T17:17:42;99973.67;;;19.71;42.08
86602;BME280;77266;52.284;20.890;2024-03-22T17:20:15;99969.34;;;19.67;41.96
86602;BME280;77266;52.284;20.890;2024-03-22T17:22:50;99966.45;;;19.65;42.08
86602;BME280;77266;52.284;20.890;2024-03-22T17:25:20;99964.86;;;19.64;41.90
86602;BME280;77266;52.284;20.890;2024-03-22T17:27:51;99956.85;;;19.59;42.34
86602;BME280;77266;52.284;20.890;2024-03-22T17:30:22;99954.48;;;19.54;42.54
86602;BME280;77266;52.284;20.890;2024-03-22T17:32:53;99949.49;;;19.50;42.51
86602;BME280;77266;52.284;20.890;2024-03-22T17:35:24;99956.31;;;19.48;42.39
86602;BME280;77266;52.284;20.890;2024-03-22T17:37:59;99956.31;;;19.44;42.57
86602;BME280;77266;52.284;20.890;2024-03-22T17:40:30;99953.70;;;19.46;42.48
86602;BME280;77266;52.284;20.890;2024-03-22T17:43:01;99949.34;;;19.43;42.70
86602;BME280;77266;52.284;20.890;2024-03-22T17:45:39;99943.42;;;19.38;42.77
86602;BME280;77266;52.284;20.890;2024-03-22T17:48:12;99941.75;;;19.35;42.80
86602;BME280;77266;52.284;20.890;2024-03-22T17:50:42;99937.58;;;19.31;42.82
86602;BME280;77266;52.284;20.890;2024-03-22T17:53:13;99933.59;;;19.29;42.88
86602;BME280;77266;52.284;20.890;2024-03-22T17:55:44;99929.20;;;19.29;42.81
86602;BME280;77266;52.284;20.890;2024-03-22T17:58:16;99928.61;;;19.28;42.77
86602;BME280;77266;52.284;20.890;2024-03-22T18:00:47;99927.00;;;19.24;42.77
86602;BME280;77266;52.284;20.890;2024-03-22T18:03:19;99926.39;;;19.22;42.90
86602;BME280;77266;52.284;20.890;2024-03-22T18:05:51;99925.55;;;19.20;42.69
86602;BME280;77266;52.284;20.890;2024-03-22T18:08:22;99925.81;;;19.23;42.95
86602;BME280;77266;52.284;20.890;2024-03-22T18:10:52;99922.35;;;19.27;43.33
86602;BME280;77266;52.284;20.890;2024-03-22T18:13:25;99924.61;;;19.30;43.19
86602;BME280;77266;52.284;20.890;2024-03-22T18:15:58;99921.45;;;19.30;43.13
86602;BME280;77266;52.284;20.890;2024-03-22T18:18:29;99927.11;;;19.35;43.34
86602;BME280;77266;52.284;20.890;2024-03-22T18:21:00;99928.25;;;19.43;43.25
86602;BME280;77266;52.284;20.890;2024-03-22T18:23:32;99928.45;;;19.52;43.09
86602;BME280;77266;52.284;20.890;2024-03-22T18:26:09;99927.85;;;19.62;42.66
86602;BME280;77266;52.284;20.890;2024-03-22T18:28:39;99926.02;;;19.73;42.59
86602;BME280;77266;52.284;20.890;2024-03-22T18:31:09;99923.62;;;19.81;42.20
86602;BME280;77266;52.284;20.890;2024-03-22T18:33:42;99916.05;;;19.88;42.36
86602;BME280;77266;52.284;20.890;2024-03-22T18:36:12;99915.03;;;19.93;42.04
86602;BME280;77266;52.284;20.890;2024-03-22T18:38:45;99908.03;;;19.98;42.07
86602;BME280;77266;52.284;20.890;2024-03-22T18:41:20;99900.73;;;20.03;41.98
86602;BME280;77266;52.284;20.890;2024-03-22T18:43:53;99894.09;;;20.06;42.08
86602;BME280;77266;52.284;20.890;2024-03-22T18:46:24;99889.64;;;20.08;41.97
86602;BME280;77266;52.284;20.890;2024-03-22T18:48:55;99881.89;;;20.09;41.99
86602;BME280;77266;52.284;20.890;2024-03-22T18:51:25;99879.86;;;20.08;42.04
86602;BME280;77266;52.284;20.890;2024-03-22T18:53:57;99880.27;;;20.05;42.20
86602;BME280;77266;52.284;20.890;2024-03-22T18:56:28;99879.83;;;20.03;42.11
86602;BME280;77266;52.284;20.890;2024-03-22T18:58:58;99869.63;;;20.01;42.16
86602;BME280;77266;52.284;20.890;2024-03-22T19:01:31;99864.16;;;19.98;42.34
86602;BME280;77266;52.284;20.890;2024-03-22T19:04:04;99860.31;;;19.95;42.45
86602;BME280;77266;52.284;20.890;2024-03-22T19:06:34;99862.39;;;19.91;42.45
86602;BME280;77266;52.284;20.890;2024-03-22T19:09:11;99860.11;;;19.89;42.61
86602;BME280;77266;52.284;20.890;2024-03-22T19:11:43;99856.85;;;19.85;42.53
86602;BME280;77266;52.284;20.890;2024-03-22T19:14:13;99855.73;;;19.83;42.71
86602;BME280;77266;52.284;20.890;2024-03-22T19:16:46;99854.23;;;19.81;42.55
86602;BME280;77266;52.284;20.890;2024-03-22T19:19:17;99855.77;;;19.79;42.54
86602;BME280;77266;52.284;20.890;2024-03-22T19:21:47;99851.38;;;19.76;42.72
86602;BME280;77266;52.284;20.890;2024-03-22T19:24:18;99853.88;;;19.74;42.63
86602;BME280;77266;52.284;20.890;2024-03-22T19:26:48;99855.59;;;19.71;42.63
86602;BME280;77266;52.284;20.890;2024-03-22T19:29:21;99851.39;;;19.70;42.78
86602;BME280;77266;52.284;20.890;2024-03-22T19:31:51;99850.88;;;19.66;42.78
86602;BME280;77266;52.284;20.890;2024-03-22T19:34:25;99843.17;;;19.62;42.95
86602;BME280;77266;52.284;20.890;2024-03-22T19:36:56;99839.06;;;19.60;43.02
86602;BME280;77266;52.284;20.890;2024-03-22T19:39:30;99834.91;;;19.58;42.94
86602;BME280;77266;52.284;20.890;2024-03-22T19:42:00;99824.02;;;19.55;42.90
86602;BME280;77266;52.284;20.890;2024-03-22T19:44:31;99821.41;;;19.53;43.02
86602;BME280;77266;52.284;20.890;2024-03-22T19:47:04;99820.87;;;19.52;42.99
86602;BME280;77266;52.284;20.890;2024-03-22T19:49:35;99816.60;;;19.50;43.11
86602;BME280;77266;52.284;20.890;2024-03-22T19:52:06;99820.41;;;19.49;43.05
86602;BME280;77266;52.284;20.890;2024-03-22T19:54:37;99815.14;;;19.47;43.20
86602;BME280;77266;52.284;20.890;2024-03-22T19:57:08;99814.08;;;19.46;43.27
86602;BME280;77266;52.284;20.890;2024-03-22T19:59:39;99810.33;;;19.43;43.12
86602;BME280;77266;52.284;20.890;2024-03-22T20:02:11;99814.31;;;19.43;43.31
86602;BME280;77266;52.284;20.890;2024-03-22T20:04:44;99812.95;;;19.42;43.00
86602;BME280;77266;52.284;20.890;2024-03-22T20:07:18;99809.77;;;19.41;43.24
86602;BME280;77266;52.284;20.890;2024-03-22T20:09:50;99807.89;;;19.38;43.39
86602;BME280;77266;52.284;20.890;2024-03-22T20:12:21;99807.19;;;19.37;43.28
86602;BME280;77266;52.284;20.890;2024-03-22T20:14:54;99806.00;;;19.36;43.31
86602;BME280;77266;52.284;20.890;2024-03-22T20:17:28;99806.23;;;19.32;43.45
86602;BME280;77266;52.284;20.890;2024-03-22T20:20:00;99804.38;;;19.31;43.36